createdAt,value
2018-04-06T00:02:34.958Z,15.21
2018-04-06T00:17:34.213Z,15.15
2018-04-06T00:32:34.686Z,15.10
2018-04-06T00:47:34.767Z,15.05
2018-04-06T01:02:34.230Z,14.94
2018-04-06T01:17:34.446Z,14.87
2018-04-06T01:32:33.986Z,14.80
2018-04-06T01:47:34.887Z,14.75
2018-04-06T02:02:34.614Z,14.74
2018-04-06T02:17:36.186Z,14.70
2018-04-06T02:32:36.198Z,14.58
2018-04-06T02:47:34.129Z,14.46
2018-04-06T03:02:34.242Z,14.39
2018-04-06T03:17:34.417Z,14.28
2018-04-06T03:32:37.394Z,14.20
2018-04-06T03:47:34.428Z,14.03
2018-04-06T04:02:34.962Z,13.82
2018-04-06T04:17:34.666Z,13.66
2018-04-06T04:32:34.634Z,13.53
2018-04-06T04:47:34.965Z,13.48
2018-04-06T05:02:34.177Z,13.44
2018-04-06T05:17:36.194Z,13.63
2018-04-06T05:32:34.894Z,13.70
2018-04-06T05:47:34.949Z,13.80
2018-04-06T06:02:35.258Z,13.87
2018-04-06T06:17:34.150Z,13.91
2018-04-06T06:32:34.155Z,13.97
2018-04-06T06:47:36.159Z,14.06
2018-04-06T07:02:34.700Z,14.15
2018-04-06T07:17:33.909Z,14.09
2018-04-06T07:32:34.412Z,14.00
2018-04-06T07:47:34.323Z,13.97
2018-04-06T08:02:34.908Z,13.96
2018-04-06T08:17:34.685Z,13.95
2018-04-06T08:32:34.600Z,13.99
2018-04-06T08:47:34.789Z,13.99
2018-04-06T09:02:34.182Z,14.20
2018-04-06T09:17:33.894Z,14.19
2018-04-06T09:32:33.964Z,14.18
2018-04-06T09:47:37.079Z,14.31
2018-04-06T10:02:40.190Z,14.40
2018-04-06T10:17:34.346Z,14.47
2018-04-06T10:32:34.343Z,14.56
2018-04-06T10:47:34.285Z,14.63
2018-04-06T11:02:34.503Z,14.89
2018-04-06T11:17:34.107Z,15.28
2018-04-06T11:32:35.062Z,15.67
2018-04-06T11:47:35.433Z,15.64
2018-04-06T12:02:34.947Z,15.34
2018-04-06T12:17:34.926Z,15.15
2018-04-06T12:32:36.962Z,14.91
2018-04-06T12:47:35.468Z,14.75
2018-04-06T13:02:34.176Z,14.63
2018-04-06T13:17:36.799Z,14.40
2018-04-06T13:32:33.829Z,14.11
2018-04-06T13:47:34.775Z,13.58
2018-04-06T14:02:34.869Z,13.26
2018-04-06T14:17:34.399Z,13.07
2018-04-06T14:32:33.604Z,12.96
2018-04-06T14:47:36.097Z,12.88
2018-04-06T15:02:34.614Z,12.65
2018-04-06T15:17:34.395Z,12.49
2018-04-06T15:32:34.286Z,12.40
2018-04-06T15:47:34.742Z,12.34
2018-04-06T16:02:34.893Z,12.34
2018-04-06T16:17:34.616Z,12.24
2018-04-06T16:32:34.780Z,14.82
2018-04-06T16:47:36.002Z,13.22
2018-04-06T17:02:34.083Z,12.42
2018-04-06T17:17:33.371Z,12.02
2018-04-06T17:32:35.049Z,11.77
2018-04-06T17:47:36.494Z,11.65
2018-04-06T18:02:35.197Z,11.51
2018-04-06T18:17:37.773Z,11.43
2018-04-06T18:32:35.288Z,11.40
2018-04-06T18:47:34.833Z,11.38
2018-04-06T19:02:34.602Z,11.37
2018-04-06T19:17:34.578Z,11.35
2018-04-06T19:32:34.570Z,11.33
2018-04-06T19:47:34.951Z,11.31
2018-04-06T20:02:36.862Z,11.28
2018-04-06T20:17:36.875Z,11.21
2018-04-06T20:32:34.800Z,11.21
2018-04-06T20:47:35.128Z,11.19
2018-04-06T21:02:35.171Z,11.18
2018-04-06T21:17:35.082Z,11.14
2018-04-06T21:32:35.078Z,11.15
2018-04-06T21:47:35.430Z,11.14
2018-04-06T22:02:35.135Z,11.16
2018-04-06T22:17:35.317Z,11.15
2018-04-06T22:32:35.267Z,11.11
2018-04-06T22:47:34.430Z,11.09
2018-04-06T23:02:34.574Z,11.08
2018-04-06T23:17:37.358Z,11.05
2018-04-06T23:32:34.527Z,10.99
2018-04-06T23:47:34.885Z,10.99
